createdAt,value
2018-10-05T08:19:18.233Z,996
2018-10-05T08:22:18.642Z,996
2018-10-05T08:25:18.234Z,998
2018-10-05T08:28:18.365Z,1000
2018-10-05T08:31:18.259Z,1003
2018-10-05T08:34:18.354Z,1006
2018-10-05T08:37:18.307Z,1009
2018-10-05T08:40:18.420Z,1012
2018-10-05T08:43:18.323Z,1014
2018-10-05T08:46:18.443Z,1016
2018-10-05T08:49:18.352Z,1018
2018-10-05T08:52:18.375Z,1019
2018-10-05T08:55:18.381Z,1020
2018-10-05T08:58:18.393Z,1020
2018-10-05T09:01:18.519Z,1021
2018-10-05T09:04:18.560Z,1021
2018-10-05T09:07:18.545Z,1020
2018-10-05T09:10:18.801Z,1020
2018-10-05T09:13:18.480Z,1019
2018-10-05T09:16:18.508Z,1018
2018-10-05T09:19:18.649Z,1017
2018-10-05T09:22:18.648Z,1015
2018-10-05T09:25:18.577Z,1014
2018-10-05T09:28:18.564Z,1012
2018-10-05T09:31:18.597Z,1010
2018-10-05T09:34:18.623Z,1008
2018-10-05T09:37:18.801Z,1006
2018-10-05T09:40:18.667Z,1004
2018-10-05T09:43:18.790Z,1002
2018-10-05T09:46:18.824Z,1000
2018-10-05T09:49:18.738Z,998
2018-10-05T09:52:18.882Z,996
2018-10-05T09:55:18.774Z,995
2018-10-05T09:58:18.800Z,994
2018-10-05T10:01:18.806Z,993
2018-10-05T10:04:18.844Z,992
2018-10-05T10:07:18.858Z,991
2018-10-05T10:10:18.897Z,990
2018-10-05T10:13:18.898Z,990
2018-10-05T10:16:18.936Z,989
2018-10-05T10:19:19.059Z,989
2018-10-05T10:22:18.996Z,989
2018-10-05T10:25:18.991Z,989
2018-10-05T10:28:19.056Z,989
2018-10-05T10:31:19.054Z,989
2018-10-05T10:34:19.126Z,988
2018-10-05T10:37:19.108Z,988
2018-10-05T10:40:19.143Z,988
2018-10-05T10:43:19.155Z,988
2018-10-05T10:46:19.174Z,988
2018-10-05T10:49:19.261Z,988
2018-10-05T10:52:19.255Z,987
2018-10-05T10:55:19.282Z,987
2018-10-05T10:58:19.323Z,987
2018-10-05T11:01:19.363Z,987
2018-10-05T11:04:19.385Z,986
2018-10-05T11:07:19.387Z,986
2018-10-05T11:10:19.435Z,986
2018-10-05T11:13:19.572Z,986
2018-10-05T11:16:19.482Z,986
2018-10-05T11:19:19.550Z,986
2018-10-05T11:22:19.660Z,986
2018-10-05T11:25:19.598Z,986
2018-10-05T11:28:19.617Z,986
2018-10-05T11:31:19.641Z,986
2018-10-05T11:34:19.690Z,986
2018-10-05T11:37:19.719Z,986
2018-10-05T11:40:19.872Z,987
2018-10-05T11:43:19.885Z,987
2018-10-05T11:46:19.871Z,987
2018-10-05T11:49:19.857Z,987
2018-10-05T11:52:20.027Z,988
2018-10-05T11:55:20.021Z,988
2018-10-05T11:58:19.917Z,988
2018-10-05T12:01:19.955Z,988
2018-10-05T12:04:20.024Z,988
2018-10-05T12:07:20.044Z,988
2018-10-05T12:10:20.071Z,988
2018-10-05T12:13:20.078Z,988
2018-10-05T12:16:20.136Z,988
2018-10-05T12:22:20.180Z,987
2018-10-05T12:25:20.206Z,987
2018-10-05T12:28:20.351Z,987
2018-10-05T12:31:20.273Z,987
2018-10-05T12:34:20.310Z,987
2018-10-05T12:37:20.406Z,987
2018-10-05T12:40:20.371Z,987
2018-10-05T12:43:20.518Z,987
2018-10-05T12:46:20.438Z,987
2018-10-05T12:49:20.482Z,987
2018-10-05T12:52:20.529Z,987
2018-10-05T12:55:20.552Z,987
2018-10-05T12:58:20.554Z,987
2018-10-05T13:01:20.595Z,987
2018-10-05T13:04:20.648Z,987
2018-10-05T13:07:20.681Z,987
2018-10-05T13:10:20.695Z,987
2018-10-05T13:13:20.740Z,987
2018-10-05T13:16:20.775Z,987
2018-10-05T13:19:20.807Z,987
2018-10-05T13:22:20.853Z,987
2018-10-05T13:25:20.876Z,987
2018-10-05T13:28:20.898Z,987
2018-10-05T13:31:20.945Z,987
2018-10-05T13:34:21.091Z,987
2018-10-05T13:37:21.054Z,987
2018-10-05T13:40:21.033Z,987
2018-10-05T13:43:21.062Z,987
2018-10-05T13:46:21.080Z,987
2018-10-05T13:49:21.558Z,987
2018-10-05T13:52:21.162Z,987
2018-10-05T13:55:21.195Z,987
2018-10-05T13:58:21.263Z,987
2018-10-05T14:01:21.240Z,987
2018-10-05T14:04:21.292Z,986
2018-10-05T14:07:21.340Z,986
2018-10-05T14:10:21.414Z,986
